sensor_id;sensor_type;location;lat;lon;timestamp;P1;durP1;ratioP1;P2;durP2;ratioP2
58727;SDS011;44505;43.240;0.070;2023-02-02T00:01:55;81.10;;;42.08;;
58727;SDS011;44505;43.240;0.070;2023-02-02T00:04:22;51.15;;;24.45;;
58727;SDS011;44505;43.240;0.070;2023-02-02T00:06:47;30.35;;;18.45;;
58727;SDS011;44505;43.240;0.070;2023-02-02T00:09:14;85.13;;;49.33;;
58727;SDS011;44505;43.240;0.070;2023-02-02T00:11:40;32.78;;;17.98;;
58727;SDS011;44505;43.240;0.070;2023-02-02T00:14:06;21.73;;;12.43;;
58727;SDS011;44505;43.240;0.070;2023-02-02T00:16:36;33.50;;;22.75;;
58727;SDS011;44505;43.240;0.070;2023-02-02T00:19:03;36.42;;;21.20;;
58727;SDS011;44505;43.240;0.070;2023-02-02T00:21:29;54.92;;;30.95;;
58727;SDS011;44505;43.240;0.070;2023-02-02T00:23:54;39.80;;;27.35;;
58727;SDS011;44505;43.240;0.070;2023-02-02T00:26:20;41.20;;;28.90;;
58727;SDS011;44505;43.240;0.070;2023-02-02T00:28:45;40.47;;;27.63;;
58727;SDS011;44505;43.240;0.070;2023-02-02T00:31:11;30.63;;;23.10;;
58727;SDS011;44505;43.240;0.070;2023-02-02T00:33:36;22.17;;;15.65;;
58727;SDS011;44505;43.240;0.070;2023-02-02T00:36:02;14.15;;;11.20;;
58727;SDS011;44505;43.240;0.070;2023-02-02T00:38:27;19.90;;;11.50;;
58727;SDS011;44505;43.240;0.070;2023-02-02T00:40:53;20.67;;;12.18;;
58727;SDS011;44505;43.240;0.070;2023-02-02T00:43:19;17.20;;;9.50;;
58727;SDS011;44505;43.240;0.070;2023-02-02T00:45:44;16.38;;;11.38;;
58727;SDS011;44505;43.240;0.070;2023-02-02T00:48:10;14.10;;;9.15;;
58727;SDS011;44505;43.240;0.070;2023-02-02T00:50:35;12.65;;;8.65;;
58727;SDS011;44505;43.240;0.070;2023-02-02T00:53:00;12.90;;;7.70;;
58727;SDS011;44505;43.240;0.070;2023-02-02T00:55:26;11.75;;;8.75;;
58727;SDS011;44505;43.240;0.070;2023-02-02T00:57:52;12.65;;;8.27;;
58727;SDS011;44505;43.240;0.070;2023-02-02T01:00:21;11.35;;;7.88;;
58727;SDS011;44505;43.240;0.070;2023-02-02T01:02:48;11.43;;;7.38;;
58727;SDS011;44505;43.240;0.070;2023-02-02T01:05:13;147.35;;;46.42;;
58727;SDS011;44505;43.240;0.070;2023-02-02T01:07:39;367.60;;;165.00;;
58727;SDS011;44505;43.240;0.070;2023-02-02T01:10:05;257.63;;;71.32;;
58727;SDS011;44505;43.240;0.070;2023-02-02T01:12:31;125.05;;;47.50;;
58727;SDS011;44505;43.240;0.070;2023-02-02T01:14:56;43.83;;;24.27;;
58727;SDS011;44505;43.240;0.070;2023-02-02T01:17:22;33.13;;;21.70;;
58727;SDS011;44505;43.240;0.070;2023-02-02T01:19:47;22.38;;;17.65;;
58727;SDS011;44505;43.240;0.070;2023-02-02T01:22:12;16.13;;;11.25;;
58727;SDS011;44505;43.240;0.070;2023-02-02T01:24:38;31.52;;;19.48;;
58727;SDS011;44505;43.240;0.070;2023-02-02T01:27:03;44.20;;;29.27;;
58727;SDS011;44505;43.240;0.070;2023-02-02T01:29:29;67.85;;;33.75;;
58727;SDS011;44505;43.240;0.070;2023-02-02T01:31:54;26.13;;;18.30;;
58727;SDS011;44505;43.240;0.070;2023-02-02T01:34:19;26.67;;;18.67;;
58727;SDS011;44505;43.240;0.070;2023-02-02T01:36:45;18.10;;;11.18;;
58727;SDS011;44505;43.240;0.070;2023-02-02T01:39:10;9.98;;;7.53;;
58727;SDS011;44505;43.240;0.070;2023-02-02T01:41:36;15.85;;;9.75;;
58727;SDS011;44505;43.240;0.070;2023-02-02T01:44:02;16.10;;;9.20;;
58727;SDS011;44505;43.240;0.070;2023-02-02T01:46:35;25.02;;;9.73;;
58727;SDS011;44505;43.240;0.070;2023-02-02T01:49:11;17.63;;;8.60;;
58727;SDS011;44505;43.240;0.070;2023-02-02T01:54:10;13.80;;;7.38;;
58727;SDS011;44505;43.240;0.070;2023-02-02T01:56:39;15.10;;;8.07;;
58727;SDS011;44505;43.240;0.070;2023-02-02T01:59:06;18.08;;;11.45;;
58727;SDS011;44505;43.240;0.070;2023-02-02T02:01:31;13.60;;;7.07;;
58727;SDS011;44505;43.240;0.070;2023-02-02T02:03:57;18.48;;;8.23;;
58727;SDS011;44505;43.240;0.070;2023-02-02T02:06:23;78.97;;;29.08;;
58727;SDS011;44505;43.240;0.070;2023-02-02T02:08:54;28.67;;;10.80;;
58727;SDS011;44505;43.240;0.070;2023-02-02T02:11:21;18.80;;;10.45;;
58727;SDS011;44505;43.240;0.070;2023-02-02T02:13:47;15.98;;;8.15;;
58727;SDS011;44505;43.240;0.070;2023-02-02T02:16:51;10.27;;;6.38;;
58727;SDS011;44505;43.240;0.070;2023-02-02T02:22:22;14.55;;;8.73;;
58727;SDS011;44505;43.240;0.070;2023-02-02T02:29:14;21.45;;;7.97;;
58727;SDS011;44505;43.240;0.070;2023-02-02T02:41:28;23.38;;;12.43;;
58727;SDS011;44505;43.240;0.070;2023-02-02T02:44:01;19.30;;;9.82;;
58727;SDS011;44505;43.240;0.070;2023-02-02T02:46:27;18.38;;;11.23;;
58727;SDS011;44505;43.240;0.070;2023-02-02T02:48:52;8.35;;;6.50;;
58727;SDS011;44505;43.240;0.070;2023-02-02T02:51:38;11.68;;;7.05;;
58727;SDS011;44505;43.240;0.070;2023-02-02T02:54:04;11.10;;;8.05;;
58727;SDS011;44505;43.240;0.070;2023-02-02T03:01:45;7.97;;;5.90;;
58727;SDS011;44505;43.240;0.070;2023-02-02T03:04:22;9.20;;;5.90;;
58727;SDS011;44505;43.240;0.070;2023-02-02T03:07:00;6.50;;;4.88;;
58727;SDS011;44505;43.240;0.070;2023-02-02T03:09:31;15.88;;;6.82;;
58727;SDS011;44505;43.240;0.070;2023-02-02T03:11:58;7.65;;;5.47;;
58727;SDS011;44505;43.240;0.070;2023-02-02T03:14:24;22.95;;;10.23;;
58727;SDS011;44505;43.240;0.070;2023-02-02T03:16:52;18.33;;;7.63;;
58727;SDS011;44505;43.240;0.070;2023-02-02T03:19:18;10.15;;;6.30;;
58727;SDS011;44505;43.240;0.070;2023-02-02T03:21:43;15.02;;;6.47;;
58727;SDS011;44505;43.240;0.070;2023-02-02T03:24:09;14.55;;;7.68;;
58727;SDS011;44505;43.240;0.070;2023-02-02T03:26:34;18.05;;;9.80;;
58727;SDS011;44505;43.240;0.070;2023-02-02T03:29:00;5.88;;;4.28;;
58727;SDS011;44505;43.240;0.070;2023-02-02T03:31:25;6.18;;;5.10;;
58727;SDS011;44505;43.240;0.070;2023-02-02T03:33:51;6.82;;;5.68;;
58727;SDS011;44505;43.240;0.070;2023-02-02T03:36:17;10.32;;;5.75;;
58727;SDS011;44505;43.240;0.070;2023-02-02T03:38:42;11.55;;;6.50;;
58727;SDS011;44505;43.240;0.070;2023-02-02T03:41:07;10.50;;;5.20;;
58727;SDS011;44505;43.240;0.070;2023-02-02T03:43:33;8.63;;;4.07;;
58727;SDS011;44505;43.240;0.070;2023-02-02T03:45:59;6.55;;;3.80;;
58727;SDS011;44505;43.240;0.070;2023-02-02T03:48:25;4.45;;;3.60;;
58727;SDS011;44505;43.240;0.070;2023-02-02T03:50:51;5.55;;;3.40;;
58727;SDS011;44505;43.240;0.070;2023-02-02T03:53:16;4.10;;;3.53;;
58727;SDS011;44505;43.240;0.070;2023-02-02T03:55:42;6.28;;;3.70;;
58727;SDS011;44505;43.240;0.070;2023-02-02T03:58:07;4.93;;;3.72;;
58727;SDS011;44505;43.240;0.070;2023-02-02T04:00:32;12.75;;;6.82;;
58727;SDS011;44505;43.240;0.070;2023-02-02T04:02:58;9.02;;;5.28;;
58727;SDS011;44505;43.240;0.070;2023-02-02T04:05:23;16.02;;;7.80;;
58727;SDS011;44505;43.240;0.070;2023-02-02T04:07:49;11.23;;;6.13;;
58727;SDS011;44505;43.240;0.070;2023-02-02T04:10:15;7.10;;;4.38;;
58727;SDS011;44505;43.240;0.070;2023-02-02T04:12:40;6.82;;;5.22;;
58727;SDS011;44505;43.240;0.070;2023-02-02T04:15:06;6.05;;;3.70;;
58727;SDS011;44505;43.240;0.070;2023-02-02T04:17:31;9.48;;;5.30;;
58727;SDS011;44505;43.240;0.070;2023-02-02T04:19:57;16.98;;;9.38;;
58727;SDS011;44505;43.240;0.070;2023-02-02T04:22:23;14.07;;;6.32;;
58727;SDS011;44505;43.240;0.070;2023-02-02T04:24:49;29.35;;;12.15;;
58727;SDS011;44505;43.240;0.070;2023-02-02T04:27:14;4.72;;;3.83;;
58727;SDS011;44505;43.240;0.070;2023-02-02T04:29:40;6.85;;;4.15;;
58727;SDS011;44505;43.240;0.070;2023-02-02T04:32:05;4.93;;;3.72;;
58727;SDS011;44505;43.240;0.070;2023-02-02T04:34:30;7.32;;;5.35;;
58727;SDS011;44505;43.240;0.070;2023-02-02T04:36:56;5.75;;;3.53;;
58727;SDS011;44505;43.240;0.070;2023-02-02T04:39:21;4.20;;;3.33;;
58727;SDS011;44505;43.240;0.070;2023-02-02T04:41:46;3.65;;;3.22;;
58727;SDS011;44505;43.240;0.070;2023-02-02T04:44:15;3.13;;;2.45;;
58727;SDS011;44505;43.240;0.070;2023-02-02T04:46:41;3.03;;;2.55;;
58727;SDS011;44505;43.240;0.070;2023-02-02T04:49:07;4.13;;;2.67;;
58727;SDS011;44505;43.240;0.070;2023-02-02T04:51:33;5.00;;;2.60;;
58727;SDS011;44505;43.240;0.070;2023-02-02T04:53:58;4.97;;;2.40;;
58727;SDS011;44505;43.240;0.070;2023-02-02T04:56:24;2.47;;;2.28;;
58727;SDS011;44505;43.240;0.070;2023-02-02T04:58:52;3.42;;;2.63;;
58727;SDS011;44505;43.240;0.070;2023-02-02T05:01:18;4.20;;;2.30;;
58727;SDS011;44505;43.240;0.070;2023-02-02T05:03:44;3.78;;;2.72;;
58727;SDS011;44505;43.240;0.070;2023-02-02T05:06:09;4.65;;;2.70;;
58727;SDS011;44505;43.240;0.070;2023-02-02T05:08:35;6.47;;;3.22;;
58727;SDS011;44505;43.240;0.070;2023-02-02T05:11:11;4.90;;;2.75;;
58727;SDS011;44505;43.240;0.070;2023-02-02T05:13:36;5.13;;;3.10;;
58727;SDS011;44505;43.240;0.070;2023-02-02T05:16:02;4.28;;;2.75;;
58727;SDS011;44505;43.240;0.070;2023-02-02T05:18:28;2.78;;;2.50;;
58727;SDS011;44505;43.240;0.070;2023-02-02T05:20:57;5.43;;;2.72;;
58727;SDS011;44505;43.240;0.070;2023-02-02T05:23:23;2.55;;;2.20;;
58727;SDS011;44505;43.240;0.070;2023-02-02T05:25:52;2.47;;;2.28;;
58727;SDS011;44505;43.240;0.070;2023-02-02T05:28:17;2.67;;;2.47;;
58727;SDS011;44505;43.240;0.070;2023-02-02T05:30:43;3.58;;;2.80;;
58727;SDS011;44505;43.240;0.070;2023-02-02T05:33:08;5.75;;;2.78;;
58727;SDS011;44505;43.240;0.070;2023-02-02T05:35:34;7.10;;;3.45;;
58727;SDS011;44505;43.240;0.070;2023-02-02T05:37:59;5.03;;;3.45;;
58727;SDS011;44505;43.240;0.070;2023-02-02T05:40:25;11.85;;;5.55;;
58727;SDS011;44505;43.240;0.070;2023-02-02T05:42:50;8.93;;;3.47;;
58727;SDS011;44505;43.240;0.070;2023-02-02T05:45:16;7.93;;;4.68;;
58727;SDS011;44505;43.240;0.070;2023-02-02T05:47:41;8.25;;;4.55;;
58727;SDS011;44505;43.240;0.070;2023-02-02T05:50:07;7.35;;;4.25;;
58727;SDS011;44505;43.240;0.070;2023-02-02T05:52:33;11.55;;;5.50;;
58727;SDS011;44505;43.240;0.070;2023-02-02T05:54:59;6.15;;;4.57;;
58727;SDS011;44505;43.240;0.070;2023-02-02T05:57:24;5.82;;;3.67;;
58727;SDS011;44505;43.240;0.070;2023-02-02T05:59:52;3.75;;;3.35;;
58727;SDS011;44505;43.240;0.070;2023-02-02T06:02:17;2.92;;;2.70;;
58727;SDS011;44505;43.240;0.070;2023-02-02T06:04:42;2.97;;;2.08;;
58727;SDS011;44505;43.240;0.070;2023-02-02T06:07:08;3.17;;;2.30;;
58727;SDS011;44505;43.240;0.070;2023-02-02T06:09:33;2.22;;;2.03;;
58727;SDS011;44505;43.240;0.070;2023-02-02T06:11:59;4.72;;;3.60;;
58727;SDS011;44505;43.240;0.070;2023-02-02T06:14:24;5.10;;;3.75;;
58727;SDS011;44505;43.240;0.070;2023-02-02T06:16:49;14.15;;;5.97;;
58727;SDS011;44505;43.240;0.070;2023-02-02T06:19:15;13.15;;;6.00;;
58727;SDS011;44505;43.240;0.070;2023-02-02T06:21:40;8.23;;;4.70;;
58727;SDS011;44505;43.240;0.070;2023-02-02T06:24:06;4.63;;;3.38;;
58727;SDS011;44505;43.240;0.070;2023-02-02T06:26:31;4.07;;;3.00;;
58727;SDS011;44505;43.240;0.070;2023-02-02T06:28:57;4.53;;;3.53;;
58727;SDS011;44505;43.240;0.070;2023-02-02T06:31:22;2.97;;;2.78;;
58727;SDS011;44505;43.240;0.070;2023-02-02T06:33:51;5.22;;;2.90;;
58727;SDS011;44505;43.240;0.070;2023-02-02T06:36:17;4.90;;;2.78;;
58727;SDS011;44505;43.240;0.070;2023-02-02T06:38:43;6.47;;;3.63;;
58727;SDS011;44505;43.240;0.070;2023-02-02T06:41:08;3.92;;;2.60;;
58727;SDS011;44505;43.240;0.070;2023-02-02T06:43:33;3.53;;;2.50;;
58727;SDS011;44505;43.240;0.070;2023-02-02T06:45:59;4.95;;;2.88;;
58727;SDS011;44505;43.240;0.070;2023-02-02T06:48:25;6.30;;;3.22;;
58727;SDS011;44505;43.240;0.070;2023-02-02T06:50:50;5.60;;;3.03;;
58727;SDS011;44505;43.240;0.070;2023-02-02T06:53:16;6.78;;;3.03;;
58727;SDS011;44505;43.240;0.070;2023-02-02T06:55:53;3.67;;;3.05;;
58727;SDS011;44505;43.240;0.070;2023-02-02T06:58:19;6.13;;;3.97;;
58727;SDS011;44505;43.240;0.070;2023-02-02T07:00:44;11.23;;;4.47;;
58727;SDS011;44505;43.240;0.070;2023-02-02T07:03:09;12.88;;;4.88;;
58727;SDS011;44505;43.240;0.070;2023-02-02T07:05:35;11.43;;;5.72;;
58727;SDS011;44505;43.240;0.070;2023-02-02T07:08:00;11.82;;;7.03;;
58727;SDS011;44505;43.240;0.070;2023-02-02T07:10:26;14.25;;;6.07;;
58727;SDS011;44505;43.240;0.070;2023-02-02T07:12:52;14.40;;;7.07;;
58727;SDS011;44505;43.240;0.070;2023-02-02T07:15:18;16.23;;;7.22;;
58727;SDS011;44505;43.240;0.070;2023-02-02T07:17:43;7.78;;;5.53;;
58727;SDS011;44505;43.240;0.070;2023-02-02T07:20:08;12.30;;;5.43;;
58727;SDS011;44505;43.240;0.070;2023-02-02T07:22:36;25.42;;;8.38;;
58727;SDS011;44505;43.240;0.070;2023-02-02T07:27:27;17.42;;;8.73;;
58727;SDS011;44505;43.240;0.070;2023-02-02T07:29:52;12.90;;;7.72;;
58727;SDS011;44505;43.240;0.070;2023-02-02T07:32:18;45.22;;;20.98;;
58727;SDS011;44505;43.240;0.070;2023-02-02T07:34:43;46.33;;;20.58;;
58727;SDS011;44505;43.240;0.070;2023-02-02T07:37:09;28.15;;;16.13;;
58727;SDS011;44505;43.240;0.070;2023-02-02T07:39:34;59.65;;;26.55;;
58727;SDS011;44505;43.240;0.070;2023-02-02T07:41:59;17.95;;;9.93;;
58727;SDS011;44505;43.240;0.070;2023-02-02T07:44:25;11.10;;;8.20;;
58727;SDS011;44505;43.240;0.070;2023-02-02T07:46:50;19.35;;;11.05;;
58727;SDS011;44505;43.240;0.070;2023-02-02T07:49:16;55.92;;;26.65;;
58727;SDS011;44505;43.240;0.070;2023-02-02T07:51:42;14.10;;;8.02;;
58727;SDS011;44505;43.240;0.070;2023-02-02T07:54:08;33.67;;;14.88;;
58727;SDS011;44505;43.240;0.070;2023-02-02T07:56:34;19.48;;;10.68;;
58727;SDS011;44505;43.240;0.070;2023-02-02T07:59:00;28.02;;;17.17;;
58727;SDS011;44505;43.240;0.070;2023-02-02T08:01:26;38.38;;;19.55;;
58727;SDS011;44505;43.240;0.070;2023-02-02T08:03:52;14.30;;;9.30;;
58727;SDS011;44505;43.240;0.070;2023-02-02T08:06:19;9.43;;;6.88;;
58727;SDS011;44505;43.240;0.070;2023-02-02T08:08:45;9.95;;;5.90;;
58727;SDS011;44505;43.240;0.070;2023-02-02T08:11:11;11.45;;;7.47;;
58727;SDS011;44505;43.240;0.070;2023-02-02T08:13:37;32.80;;;17.10;;
58727;SDS011;44505;43.240;0.070;2023-02-02T08:16:03;21.02;;;12.07;;
58727;SDS011;44505;43.240;0.070;2023-02-02T08:18:29;16.90;;;10.70;;
58727;SDS011;44505;43.240;0.070;2023-02-02T08:20:57;24.20;;;14.35;;
58727;SDS011;44505;43.240;0.070;2023-02-02T08:25:48;95.88;;;27.25;;
58727;SDS011;44505;43.240;0.070;2023-02-02T08:28:14;209.27;;;56.88;;
58727;SDS011;44505;43.240;0.070;2023-02-02T08:30:39;24.38;;;14.85;;
58727;SDS011;44505;43.240;0.070;2023-02-02T08:33:05;17.63;;;9.70;;
58727;SDS011;44505;43.240;0.070;2023-02-02T08:35:30;14.65;;;10.35;;
58727;SDS011;44505;43.240;0.070;2023-02-02T08:37:55;13.77;;;8.98;;
58727;SDS011;44505;43.240;0.070;2023-02-02T08:40:21;49.38;;;19.98;;
58727;SDS011;44505;43.240;0.070;2023-02-02T08:42:51;15.68;;;9.25;;
58727;SDS011;44505;43.240;0.070;2023-02-02T08:45:16;66.22;;;25.23;;
58727;SDS011;44505;43.240;0.070;2023-02-02T08:47:42;47.58;;;21.27;;
58727;SDS011;44505;43.240;0.070;2023-02-02T08:50:07;53.15;;;23.48;;
58727;SDS011;44505;43.240;0.070;2023-02-02T08:52:33;114.38;;;33.92;;
58727;SDS011;44505;43.240;0.070;2023-02-02T08:54:58;179.38;;;60.42;;
58727;SDS011;44505;43.240;0.070;2023-02-02T08:57:24;166.02;;;64.88;;
58727;SDS011;44505;43.240;0.070;2023-02-02T08:59:49;78.93;;;33.08;;
58727;SDS011;44505;43.240;0.070;2023-02-02T09:02:14;33.38;;;20.65;;
58727;SDS011;44505;43.240;0.070;2023-02-02T09:04:40;49.67;;;30.42;;
58727;SDS011;44505;43.240;0.070;2023-02-02T09:07:09;38.33;;;22.75;;
58727;SDS011;44505;43.240;0.070;2023-02-02T09:09:34;59.42;;;28.42;;
58727;SDS011;44505;43.240;0.070;2023-02-02T09:12:00;31.27;;;17.40;;
58727;SDS011;44505;43.240;0.070;2023-02-02T09:14:25;23.48;;;16.20;;
58727;SDS011;44505;43.240;0.070;2023-02-02T09:16:50;15.98;;;9.38;;
58727;SDS011;44505;43.240;0.070;2023-02-02T09:19:16;16.55;;;9.95;;
58727;SDS011;44505;43.240;0.070;2023-02-02T09:21:41;29.73;;;15.85;;
58727;SDS011;44505;43.240;0.070;2023-02-02T09:24:07;41.90;;;20.30;;
58727;SDS011;44505;43.240;0.070;2023-02-02T09:26:33;13.30;;;8.10;;
58727;SDS011;44505;43.240;0.070;2023-02-02T09:28:59;7.97;;;7.30;;
58727;SDS011;44505;43.240;0.070;2023-02-02T09:31:29;10.60;;;6.85;;
58727;SDS011;44505;43.240;0.070;2023-02-02T09:33:54;31.65;;;18.50;;
58727;SDS011;44505;43.240;0.070;2023-02-02T09:36:21;22.48;;;14.43;;
58727;SDS011;44505;43.240;0.070;2023-02-02T09:38:46;12.75;;;7.88;;
58727;SDS011;44505;43.240;0.070;2023-02-02T09:46:24;12.93;;;7.60;;
58727;SDS011;44505;43.240;0.070;2023-02-02T09:48:56;41.53;;;15.30;;
58727;SDS011;44505;43.240;0.070;2023-02-02T09:51:24;93.57;;;34.60;;
58727;SDS011;44505;43.240;0.070;2023-02-02T09:56:28;11.60;;;7.45;;
58727;SDS011;44505;43.240;0.070;2023-02-02T09:58:58;14.07;;;8.60;;
58727;SDS011;44505;43.240;0.070;2023-02-02T10:08:51;8.10;;;5.55;;
58727;SDS011;44505;43.240;0.070;2023-02-02T10:11:25;3.20;;;2.65;;
58727;SDS011;44505;43.240;0.070;2023-02-02T10:13:51;3.58;;;3.08;;
58727;SDS011;44505;43.240;0.070;2023-02-02T10:16:18;2.28;;;2.08;;
58727;SDS011;44505;43.240;0.070;2023-02-02T10:19:00;2.92;;;2.65;;
58727;SDS011;44505;43.240;0.070;2023-02-02T10:24:14;4.35;;;2.35;;
58727;SDS011;44505;43.240;0.070;2023-02-02T10:26:45;18.92;;;8.48;;
58727;SDS011;44505;43.240;0.070;2023-02-02T10:42:38;15.35;;;6.25;;
58727;SDS011;44505;43.240;0.070;2023-02-02T10:47:34;5.47;;;4.65;;
58727;SDS011;44505;43.240;0.070;2023-02-02T10:50:14;9.50;;;5.18;;
58727;SDS011;44505;43.240;0.070;2023-02-02T10:52:44;36.13;;;14.38;;
58727;SDS011;44505;43.240;0.070;2023-02-02T11:00:53;18.60;;;16.45;;
58727;SDS011;44505;43.240;0.070;2023-02-02T11:03:20;11.77;;;9.65;;
58727;SDS011;44505;43.240;0.070;2023-02-02T11:05:46;12.45;;;9.00;;
58727;SDS011;44505;43.240;0.070;2023-02-02T11:08:39;6.07;;;3.33;;
58727;SDS011;44505;43.240;0.070;2023-02-02T11:11:10;9.38;;;6.25;;
58727;SDS011;44505;43.240;0.070;2023-02-02T11:13:37;6.88;;;4.57;;
58727;SDS011;44505;43.240;0.070;2023-02-02T11:16:16;7.30;;;6.55;;
58727;SDS011;44505;43.240;0.070;2023-02-02T11:18:42;16.08;;;13.80;;
58727;SDS011;44505;43.240;0.070;2023-02-02T11:24:04;4.05;;;3.35;;
58727;SDS011;44505;43.240;0.070;2023-02-02T11:29:17;5.13;;;3.30;;
58727;SDS011;44505;43.240;0.070;2023-02-02T11:31:44;3.28;;;3.05;;
58727;SDS011;44505;43.240;0.070;2023-02-02T11:36:38;2.90;;;2.60;;
58727;SDS011;44505;43.240;0.070;2023-02-02T11:39:14;5.78;;;5.20;;
58727;SDS011;44505;43.240;0.070;2023-02-02T11:41:39;4.25;;;3.80;;
58727;SDS011;44505;43.240;0.070;2023-02-02T11:44:09;2.90;;;2.45;;
58727;SDS011;44505;43.240;0.070;2023-02-02T11:46:42;5.20;;;3.22;;
58727;SDS011;44505;43.240;0.070;2023-02-02T11:49:14;5.32;;;4.18;;
58727;SDS011;44505;43.240;0.070;2023-02-02T11:51:41;3.05;;;2.75;;
58727;SDS011;44505;43.240;0.070;2023-02-02T11:54:15;29.90;;;21.67;;
58727;SDS011;44505;43.240;0.070;2023-02-02T11:56:41;17.00;;;13.55;;
58727;SDS011;44505;43.240;0.070;2023-02-02T11:59:29;17.02;;;14.82;;
58727;SDS011;44505;43.240;0.070;2023-02-02T12:04:38;3.42;;;2.95;;
58727;SDS011;44505;43.240;0.070;2023-02-02T12:07:18;6.93;;;5.78;;
58727;SDS011;44505;43.240;0.070;2023-02-02T12:09:44;3.22;;;2.75;;
58727;SDS011;44505;43.240;0.070;2023-02-02T12:30:45;2.35;;;2.15;;
58727;SDS011;44505;43.240;0.070;2023-02-02T12:38:27;4.45;;;4.05;;
58727;SDS011;44505;43.240;0.070;2023-02-02T12:41:05;4.35;;;3.28;;
58727;SDS011;44505;43.240;0.070;2023-02-02T12:44:17;4.82;;;3.75;;
58727;SDS011;44505;43.240;0.070;2023-02-02T12:46:28;4.28;;;3.40;;
58727;SDS011;44505;43.240;0.070;2023-02-02T12:48:59;6.25;;;5.03;;
58727;SDS011;44505;43.240;0.070;2023-02-02T12:56:30;5.57;;;4.45;;
58727;SDS011;44505;43.240;0.070;2023-02-02T12:59:09;3.75;;;2.50;;
58727;SDS011;44505;43.240;0.070;2023-02-02T13:04:26;11.38;;;7.57;;
58727;SDS011;44505;43.240;0.070;2023-02-02T13:09:44;15.10;;;9.57;;
58727;SDS011;44505;43.240;0.070;2023-02-02T13:12:12;20.15;;;12.73;;
58727;SDS011;44505;43.240;0.070;2023-02-02T13:14:49;7.40;;;6.65;;
58727;SDS011;44505;43.240;0.070;2023-02-02T13:17:29;6.32;;;5.22;;
58727;SDS011;44505;43.240;0.070;2023-02-02T13:20:05;5.70;;;5.10;;
58727;SDS011;44505;43.240;0.070;2023-02-02T13:22:38;10.10;;;6.88;;
58727;SDS011;44505;43.240;0.070;2023-02-02T13:25:06;4.90;;;3.42;;
58727;SDS011;44505;43.240;0.070;2023-02-02T13:27:32;2.97;;;2.65;;
58727;SDS011;44505;43.240;0.070;2023-02-02T13:32:33;5.20;;;3.58;;
58727;SDS011;44505;43.240;0.070;2023-02-02T13:35:04;7.05;;;5.70;;
58727;SDS011;44505;43.240;0.070;2023-02-02T13:42:57;4.40;;;2.80;;
58727;SDS011;44505;43.240;0.070;2023-02-02T13:47:53;4.45;;;2.78;;
58727;SDS011;44505;43.240;0.070;2023-02-02T13:50:21;4.20;;;2.70;;
58727;SDS011;44505;43.240;0.070;2023-02-02T13:55:29;3.35;;;2.50;;
58727;SDS011;44505;43.240;0.070;2023-02-02T14:00:24;2.40;;;2.20;;
58727;SDS011;44505;43.240;0.070;2023-02-02T14:02:56;2.72;;;2.30;;
58727;SDS011;44505;43.240;0.070;2023-02-02T14:05:30;2.55;;;2.22;;
58727;SDS011;44505;43.240;0.070;2023-02-02T14:10:25;12.23;;;10.98;;
58727;SDS011;44505;43.240;0.070;2023-02-02T14:12:51;9.68;;;8.75;;
58727;SDS011;44505;43.240;0.070;2023-02-02T14:15:18;7.88;;;6.05;;
58727;SDS011;44505;43.240;0.070;2023-02-02T14:22:54;16.15;;;14.50;;
58727;SDS011;44505;43.240;0.070;2023-02-02T14:28:01;8.98;;;8.10;;
58727;SDS011;44505;43.240;0.070;2023-02-02T14:30:28;6.10;;;5.18;;
58727;SDS011;44505;43.240;0.070;2023-02-02T14:33:17;4.43;;;3.80;;
58727;SDS011;44505;43.240;0.070;2023-02-02T14:38:10;21.65;;;16.35;;
58727;SDS011;44505;43.240;0.070;2023-02-02T14:40:44;22.25;;;18.67;;
58727;SDS011;44505;43.240;0.070;2023-02-02T14:51:17;10.65;;;8.55;;
58727;SDS011;44505;43.240;0.070;2023-02-02T14:53:54;13.77;;;10.93;;
58727;SDS011;44505;43.240;0.070;2023-02-02T14:56:21;16.73;;;11.00;;
58727;SDS011;44505;43.240;0.070;2023-02-02T14:59:03;10.35;;;9.30;;
58727;SDS011;44505;43.240;0.070;2023-02-02T15:01:30;6.85;;;5.88;;
58727;SDS011;44505;43.240;0.070;2023-02-02T15:06:29;13.43;;;10.85;;
58727;SDS011;44505;43.240;0.070;2023-02-02T15:14:24;12.20;;;11.10;;
58727;SDS011;44505;43.240;0.070;2023-02-02T15:16:50;16.25;;;14.75;;
58727;SDS011;44505;43.240;0.070;2023-02-02T15:19:19;11.63;;;10.48;;
58727;SDS011;44505;43.240;0.070;2023-02-02T15:21:46;13.45;;;12.15;;
58727;SDS011;44505;43.240;0.070;2023-02-02T15:24:14;20.48;;;12.55;;
58727;SDS011;44505;43.240;0.070;2023-02-02T15:26:42;33.92;;;28.73;;
58727;SDS011;44505;43.240;0.070;2023-02-02T15:29:13;16.17;;;13.82;;
58727;SDS011;44505;43.240;0.070;2023-02-02T15:31:42;16.45;;;14.75;;
58727;SDS011;44505;43.240;0.070;2023-02-02T15:34:15;16.17;;;14.25;;
58727;SDS011;44505;43.240;0.070;2023-02-02T15:36:42;42.13;;;37.22;;
58727;SDS011;44505;43.240;0.070;2023-02-02T15:39:29;30.75;;;27.55;;
58727;SDS011;44505;43.240;0.070;2023-02-02T15:41:56;29.65;;;25.88;;
58727;SDS011;44505;43.240;0.070;2023-02-02T15:44:41;37.55;;;33.55;;
58727;SDS011;44505;43.240;0.070;2023-02-02T15:47:08;36.60;;;31.25;;
58727;SDS011;44505;43.240;0.070;2023-02-02T15:49:35;107.55;;;69.65;;
58727;SDS011;44505;43.240;0.070;2023-02-02T15:54:53;21.30;;;16.70;;
58727;SDS011;44505;43.240;0.070;2023-02-02T15:57:29;51.28;;;38.85;;
58727;SDS011;44505;43.240;0.070;2023-02-02T15:59:56;46.42;;;38.40;;
58727;SDS011;44505;43.240;0.070;2023-02-02T16:04:48;51.60;;;40.13;;
58727;SDS011;44505;43.240;0.070;2023-02-02T16:07:15;38.53;;;31.27;;
58727;SDS011;44505;43.240;0.070;2023-02-02T16:09:42;48.10;;;39.35;;
58727;SDS011;44505;43.240;0.070;2023-02-02T16:12:13;53.13;;;43.72;;
58727;SDS011;44505;43.240;0.070;2023-02-02T16:14:42;63.65;;;37.45;;
58727;SDS011;44505;43.240;0.070;2023-02-02T16:17:10;25.55;;;22.38;;
58727;SDS011;44505;43.240;0.070;2023-02-02T16:22:03;264.85;;;110.30;;
58727;SDS011;44505;43.240;0.070;2023-02-02T16:26:57;91.80;;;59.08;;
58727;SDS011;44505;43.240;0.070;2023-02-02T16:29:24;74.65;;;56.28;;
58727;SDS011;44505;43.240;0.070;2023-02-02T16:31:52;60.17;;;42.65;;
58727;SDS011;44505;43.240;0.070;2023-02-02T16:37:04;81.40;;;52.95;;
58727;SDS011;44505;43.240;0.070;2023-02-02T16:39:30;123.47;;;89.07;;
58727;SDS011;44505;43.240;0.070;2023-02-02T16:42:06;114.82;;;77.55;;
58727;SDS011;44505;43.240;0.070;2023-02-02T16:44:37;123.75;;;90.40;;
58727;SDS011;44505;43.240;0.070;2023-02-02T16:47:04;112.70;;;79.50;;
58727;SDS011;44505;43.240;0.070;2023-02-02T16:49:30;84.50;;;61.55;;
58727;SDS011;44505;43.240;0.070;2023-02-02T16:52:07;71.97;;;55.67;;
58727;SDS011;44505;43.240;0.070;2023-02-02T16:54:33;76.00;;;51.15;;
58727;SDS011;44505;43.240;0.070;2023-02-02T16:57:00;52.95;;;43.42;;
58727;SDS011;44505;43.240;0.070;2023-02-02T16:59:27;68.90;;;49.90;;
58727;SDS011;44505;43.240;0.070;2023-02-02T17:01:56;84.70;;;67.97;;
58727;SDS011;44505;43.240;0.070;2023-02-02T17:04:23;39.90;;;32.08;;
58727;SDS011;44505;43.240;0.070;2023-02-02T17:09:24;32.75;;;24.02;;
58727;SDS011;44505;43.240;0.070;2023-02-02T17:11:59;45.58;;;34.30;;
58727;SDS011;44505;43.240;0.070;2023-02-02T17:14:30;33.67;;;26.67;;
58727;SDS011;44505;43.240;0.070;2023-02-02T17:16:56;34.45;;;25.75;;
58727;SDS011;44505;43.240;0.070;2023-02-02T17:19:22;31.75;;;24.92;;
58727;SDS011;44505;43.240;0.070;2023-02-02T17:21:48;31.33;;;24.38;;
58727;SDS011;44505;43.240;0.070;2023-02-02T17:24:15;30.13;;;24.38;;
58727;SDS011;44505;43.240;0.070;2023-02-02T17:26:41;35.73;;;29.37;;
58727;SDS011;44505;43.240;0.070;2023-02-02T17:29:14;32.97;;;28.40;;
58727;SDS011;44505;43.240;0.070;2023-02-02T17:31:42;37.38;;;29.70;;